createdAt,value
2022-12-08T00:02:03.528Z,2.00
2022-12-08T00:04:52.352Z,2.20
2022-12-08T00:07:38.493Z,2.10
2022-12-08T00:10:39.597Z,2.10
2022-12-08T00:12:57.190Z,2.00
2022-12-08T00:15:25.452Z,2.00
2022-12-08T00:17:55.030Z,2.10
2022-12-08T00:20:23.305Z,2.10
2022-12-08T00:22:51.633Z,2.00
2022-12-08T00:25:19.884Z,2.00
2022-12-08T00:27:48.154Z,2.10
2022-12-08T00:30:16.718Z,2.10
2022-12-08T00:32:44.903Z,2.20
2022-12-08T00:35:14.497Z,2.20
2022-12-08T00:37:42.704Z,2.20
2022-12-08T00:40:11.905Z,2.20
2022-12-08T00:42:40.267Z,2.20
2022-12-08T00:45:09.487Z,2.20
2022-12-08T00:47:37.695Z,2.20
2022-12-08T00:50:07.728Z,2.20
2022-12-08T00:52:37.605Z,2.30
2022-12-08T00:55:07.123Z,2.30
2022-12-08T00:57:35.465Z,2.40
2022-12-08T01:00:04.464Z,2.30
2022-12-08T01:02:34.280Z,2.30
2022-12-08T01:05:02.578Z,2.40
2022-12-08T01:07:30.837Z,2.40
2022-12-08T01:10:00.575Z,2.50
2022-12-08T01:12:30.578Z,2.50
2022-12-08T01:15:02.273Z,2.50
2022-12-08T01:17:31.096Z,2.50
2022-12-08T01:19:59.600Z,2.50
2022-12-08T01:22:27.951Z,2.60
2022-12-08T01:24:56.181Z,2.60
2022-12-08T01:27:25.797Z,2.70
2022-12-08T01:29:53.998Z,2.70
2022-12-08T01:32:22.254Z,2.70
2022-12-08T01:34:50.553Z,2.70
2022-12-08T01:37:18.965Z,2.70
2022-12-08T01:39:47.336Z,2.70
2022-12-08T01:42:23.384Z,2.70
2022-12-08T01:45:00.852Z,2.80
2022-12-08T01:47:36.955Z,2.80
2022-12-08T01:50:09.207Z,2.80
2022-12-08T01:52:43.323Z,2.80
2022-12-08T01:55:18.520Z,2.90
2022-12-08T01:57:51.812Z,2.80
2022-12-08T02:00:23.774Z,2.70
2022-12-08T02:02:59.393Z,2.80
2022-12-08T02:05:30.917Z,2.80
2022-12-08T02:08:04.269Z,2.60
2022-12-08T02:10:37.160Z,2.60
2022-12-08T02:13:09.854Z,2.40
2022-12-08T02:15:54.156Z,2.30
2022-12-08T02:18:41.072Z,2.20
2022-12-08T02:21:16.940Z,2.20
2022-12-08T02:23:58.470Z,2.20
2022-12-08T02:27:36.825Z,2.20
2022-12-08T02:30:13.974Z,2.20
2022-12-08T02:33:46.948Z,2.20
2022-12-08T02:36:24.677Z,2.20
2022-12-08T02:39:04.520Z,2.30
2022-12-08T02:41:46.528Z,2.40
2022-12-08T02:44:25.546Z,2.50
2022-12-08T02:46:59.920Z,2.40
2022-12-08T02:49:31.236Z,2.40
2022-12-08T02:52:29.198Z,2.50
2022-12-08T02:55:06.371Z,2.50
2022-12-08T02:58:29.027Z,2.60
2022-12-08T03:01:25.644Z,2.70
2022-12-08T03:04:07.316Z,2.60
2022-12-08T03:06:47.503Z,2.70
2022-12-08T03:09:28.876Z,2.70
2022-12-08T03:12:07.779Z,2.70
2022-12-08T03:14:37.731Z,2.70
2022-12-08T03:17:07.931Z,2.80
2022-12-08T03:19:40.503Z,2.80
2022-12-08T03:22:10.405Z,2.90
2022-12-08T03:24:42.827Z,2.90
2022-12-08T03:27:19.036Z,2.80
2022-12-08T03:29:49.194Z,2.80
2022-12-08T03:32:28.378Z,2.80
2022-12-08T03:35:01.023Z,2.80
2022-12-08T03:37:30.435Z,2.90
2022-12-08T03:39:58.995Z,2.90
2022-12-08T03:42:28.723Z,2.90
2022-12-08T03:44:57.163Z,3.00
2022-12-08T03:47:25.531Z,2.90
2022-12-08T03:49:53.995Z,3.00
2022-12-08T03:52:22.538Z,2.90
2022-12-08T03:54:50.972Z,2.90
2022-12-08T03:57:19.352Z,2.90
2022-12-08T03:59:48.972Z,2.90
2022-12-08T04:02:17.560Z,3.00
2022-12-08T04:04:46.122Z,3.00
2022-12-08T04:07:14.500Z,2.90
2022-12-08T04:09:42.818Z,2.90
2022-12-08T04:12:11.384Z,2.90
2022-12-08T04:14:39.968Z,2.90
2022-12-08T04:17:09.678Z,2.90
2022-12-08T04:19:38.071Z,2.90
2022-12-08T04:22:06.418Z,2.80
2022-12-08T04:24:35.053Z,2.80
2022-12-08T04:27:03.497Z,2.90
2022-12-08T04:29:31.854Z,2.80
2022-12-08T04:32:00.234Z,2.80
2022-12-08T04:34:29.905Z,2.80
2022-12-08T04:36:58.255Z,2.90
2022-12-08T04:39:26.815Z,2.90
2022-12-08T04:41:56.069Z,2.90
2022-12-08T04:44:24.382Z,2.90
2022-12-08T04:46:53.353Z,2.80
2022-12-08T04:49:21.699Z,2.80
2022-12-08T04:51:51.553Z,2.70
2022-12-08T04:54:19.952Z,2.70
2022-12-08T04:56:48.388Z,2.70
2022-12-08T04:59:16.851Z,2.70
2022-12-08T05:01:45.223Z,2.70
2022-12-08T05:04:13.579Z,2.70
2022-12-08T05:06:41.978Z,2.70
2022-12-08T05:09:11.863Z,2.70
2022-12-08T05:11:48.360Z,2.60
2022-12-08T05:14:19.772Z,2.70
2022-12-08T05:16:48.919Z,2.70
2022-12-08T05:19:17.962Z,2.70
2022-12-08T05:21:46.465Z,2.60
2022-12-08T05:24:16.429Z,2.60
2022-12-08T05:26:44.845Z,2.60
2022-12-08T05:29:13.219Z,2.60
2022-12-08T05:31:41.632Z,2.60
2022-12-08T05:34:09.992Z,2.60
2022-12-08T05:36:38.335Z,2.60
2022-12-08T05:39:06.829Z,2.60
2022-12-08T05:41:36.554Z,2.60
2022-12-08T05:44:04.956Z,2.60
2022-12-08T05:46:33.334Z,2.60
2022-12-08T05:49:02.308Z,2.60
2022-12-08T05:51:31.260Z,2.70
2022-12-08T05:53:59.767Z,3.00
2022-12-08T05:56:28.212Z,3.00
2022-12-08T05:58:57.872Z,3.00
2022-12-08T06:01:31.482Z,2.90
2022-12-08T06:04:03.101Z,2.90
2022-12-08T06:06:32.730Z,2.90
2022-12-08T06:09:02.735Z,2.90
2022-12-08T06:11:33.372Z,2.90
2022-12-08T06:14:06.544Z,2.80
2022-12-08T06:16:35.051Z,2.80
2022-12-08T06:19:03.658Z,2.80
2022-12-08T06:21:32.077Z,2.80
2022-12-08T06:24:00.709Z,2.70
2022-12-08T06:26:29.675Z,2.70
2022-12-08T06:29:00.598Z,2.70
2022-12-08T06:31:30.322Z,2.60
2022-12-08T06:33:58.746Z,2.60
2022-12-08T06:36:30.040Z,2.60
2022-12-08T06:38:58.765Z,2.50
2022-12-08T06:41:28.276Z,2.60
2022-12-08T06:43:58.125Z,2.60
2022-12-08T06:46:26.475Z,2.60
2022-12-08T06:48:56.208Z,2.50
2022-12-08T06:51:24.454Z,2.40
2022-12-08T06:53:52.752Z,2.50
2022-12-08T06:56:22.860Z,2.50
2022-12-08T06:58:52.928Z,2.40
2022-12-08T07:01:21.997Z,2.40
2022-12-08T07:03:50.475Z,2.40
2022-12-08T07:06:24.863Z,2.50
2022-12-08T07:08:53.527Z,2.40
2022-12-08T07:11:22.809Z,2.50
2022-12-08T07:13:51.734Z,2.50
2022-12-08T07:16:20.311Z,2.40
2022-12-08T07:18:48.823Z,2.30
2022-12-08T07:21:20.133Z,2.30
2022-12-08T07:23:56.000Z,2.40
2022-12-08T07:26:26.746Z,2.30
2022-12-08T07:28:55.053Z,2.30
2022-12-08T07:31:26.405Z,2.30
2022-12-08T07:33:55.662Z,2.30
2022-12-08T07:36:26.199Z,2.40
2022-12-08T07:38:55.083Z,2.40
2022-12-08T07:41:26.953Z,2.30
2022-12-08T07:43:56.779Z,2.30
2022-12-08T07:46:27.079Z,2.30
2022-12-08T07:48:57.081Z,2.30
2022-12-08T07:51:26.916Z,2.40
2022-12-08T07:53:55.520Z,2.40
2022-12-08T07:56:24.840Z,2.40
2022-12-08T07:58:53.515Z,2.50
2022-12-08T08:01:27.977Z,2.40
2022-12-08T08:04:01.312Z,2.50
2022-12-08T08:06:31.762Z,2.50
2022-12-08T08:09:00.044Z,2.60
2022-12-08T08:11:28.349Z,2.60
2022-12-08T08:13:58.318Z,2.50
2022-12-08T08:16:26.792Z,2.50
2022-12-08T08:18:55.335Z,2.50
2022-12-08T08:24:14.232Z,2.40
2022-12-08T08:26:42.486Z,2.50
2022-12-08T08:29:10.722Z,2.50
2022-12-08T08:31:39.092Z,2.50
2022-12-08T08:34:07.526Z,2.50
2022-12-08T08:36:36.219Z,2.50
2022-12-08T08:39:05.431Z,2.60
2022-12-08T08:41:35.371Z,2.50
2022-12-08T08:44:03.809Z,2.50
2022-12-08T08:46:32.420Z,2.50
2022-12-08T08:49:01.295Z,2.50
2022-12-08T08:51:29.578Z,2.50
2022-12-08T08:53:58.541Z,2.60
2022-12-08T08:56:27.147Z,2.40
2022-12-08T08:58:56.823Z,2.40
2022-12-08T09:01:29.122Z,2.40
2022-12-08T09:03:58.360Z,2.30
2022-12-08T09:06:29.094Z,2.20
2022-12-08T09:08:57.523Z,2.20
2022-12-08T09:11:25.888Z,2.10
2022-12-08T09:13:56.787Z,2.10
2022-12-08T09:16:25.735Z,2.10
2022-12-08T09:18:54.194Z,2.00
2022-12-08T09:21:26.180Z,2.00
2022-12-08T09:23:57.325Z,2.00
2022-12-08T09:26:26.200Z,2.00
2022-12-08T09:28:57.536Z,2.00
2022-12-08T09:31:26.694Z,2.00
2022-12-08T09:33:56.029Z,2.00
2022-12-08T09:36:24.501Z,2.00
2022-12-08T09:38:54.740Z,2.00
2022-12-08T09:41:40.390Z,2.00
2022-12-08T09:44:44.123Z,2.00
2022-12-08T09:47:22.960Z,2.10
2022-12-08T09:50:03.395Z,2.10
2022-12-08T09:52:39.009Z,2.10
2022-12-08T09:55:21.922Z,2.10
2022-12-08T09:57:59.954Z,2.10
2022-12-08T10:00:29.717Z,2.20
2022-12-08T10:02:59.880Z,2.10
2022-12-08T10:05:33.221Z,2.00
2022-12-08T10:08:10.143Z,2.10
2022-12-08T10:10:47.645Z,2.20
2022-12-08T10:13:26.206Z,2.20
2022-12-08T10:16:19.094Z,2.10
2022-12-08T10:18:58.552Z,2.10
2022-12-08T10:21:32.254Z,2.10
2022-12-08T10:24:11.241Z,2.10
2022-12-08T10:26:40.898Z,2.10
2022-12-08T10:29:14.224Z,2.00
2022-12-08T10:31:44.085Z,2.10
2022-12-08T10:34:19.603Z,2.20
2022-12-08T10:36:53.891Z,2.20
2022-12-08T10:39:36.042Z,2.20
2022-12-08T10:42:17.570Z,2.20
2022-12-08T10:45:01.750Z,2.10
2022-12-08T10:47:37.029Z,2.10
2022-12-08T10:50:19.761Z,2.20
2022-12-08T10:52:56.472Z,2.20
2022-12-08T10:55:25.053Z,2.20
2022-12-08T10:57:53.581Z,2.10
2022-12-08T11:00:26.007Z,2.00
2022-12-08T11:03:00.454Z,2.10
2022-12-08T11:05:34.616Z,2.10
2022-12-08T11:08:05.367Z,2.20
2022-12-08T11:10:44.196Z,2.20
2022-12-08T11:13:22.760Z,2.30
2022-12-08T11:15:53.579Z,2.30
2022-12-08T11:18:31.088Z,2.30
2022-12-08T11:21:10.889Z,2.30
2022-12-08T11:23:39.371Z,2.40
2022-12-08T11:26:21.633Z,2.40
2022-12-08T11:28:49.936Z,2.50
2022-12-08T11:31:30.069Z,2.50
2022-12-08T11:34:00.033Z,2.50
2022-12-08T11:36:34.107Z,2.60
2022-12-08T11:39:06.064Z,2.60
2022-12-08T11:41:40.162Z,2.60
2022-12-08T11:44:26.857Z,2.50
2022-12-08T11:47:01.602Z,2.50
2022-12-08T11:49:38.322Z,2.50
2022-12-08T11:52:21.180Z,2.40
2022-12-08T11:54:55.484Z,2.40
2022-12-08T11:57:27.306Z,2.60
2022-12-08T11:59:59.357Z,2.60
2022-12-08T12:02:31.880Z,2.70
2022-12-08T12:05:09.351Z,2.70
2022-12-08T12:08:06.795Z,2.80
2022-12-08T12:11:08.969Z,2.90
2022-12-08T12:14:01.640Z,2.90
2022-12-08T12:16:53.071Z,3.00
2022-12-08T12:19:23.913Z,3.00
2022-12-08T12:22:09.217Z,2.90
2022-12-08T12:24:40.459Z,2.70
2022-12-08T12:27:25.302Z,2.60
2022-12-08T12:30:00.218Z,2.40
2022-12-08T12:32:45.114Z,2.40
2022-12-08T12:35:27.568Z,2.40
2022-12-08T12:38:05.284Z,2.40
2022-12-08T12:40:42.591Z,2.30
2022-12-08T12:43:28.671Z,2.30
2022-12-08T12:46:39.433Z,2.40
2022-12-08T12:50:06.742Z,2.50
2022-12-08T12:52:43.570Z,2.60
2022-12-08T12:55:29.654Z,2.70
2022-12-08T12:57:59.916Z,2.80
2022-12-08T13:00:29.259Z,2.70
2022-12-08T13:02:59.481Z,2.70
2022-12-08T13:05:31.689Z,2.50
2022-12-08T13:08:05.021Z,2.50
2022-12-08T13:10:38.959Z,2.50
2022-12-08T13:13:18.893Z,2.50
2022-12-08T13:15:53.628Z,2.60
2022-12-08T13:18:26.856Z,2.50
2022-12-08T13:21:04.296Z,2.50
2022-12-08T13:23:48.909Z,2.50
2022-12-08T13:26:25.166Z,2.50
2022-12-08T13:29:23.608Z,2.60
2022-12-08T13:31:54.516Z,2.50
2022-12-08T13:34:37.925Z,2.50
2022-12-08T13:37:26.345Z,2.60
2022-12-08T13:40:01.821Z,2.50
2022-12-08T13:42:43.384Z,2.50
2022-12-08T13:45:39.695Z,2.50
2022-12-08T13:48:35.192Z,2.40
2022-12-08T13:55:00.676Z,2.40
2022-12-08T13:57:08.880Z,2.50
2022-12-08T13:59:46.138Z,2.50
2022-12-08T14:02:28.043Z,2.50
2022-12-08T14:07:48.216Z,2.50
2022-12-08T14:10:23.276Z,2.40
2022-12-08T14:12:58.876Z,2.50
2022-12-08T14:15:34.047Z,2.50
2022-12-08T14:18:05.651Z,2.50
2022-12-08T14:20:52.255Z,2.50
2022-12-08T14:23:24.540Z,2.50
2022-12-08T14:25:53.004Z,2.50
2022-12-08T14:28:21.703Z,2.50
2022-12-08T14:30:52.361Z,2.60
2022-12-08T14:33:20.930Z,2.50
2022-12-08T14:35:55.534Z,2.60
2022-12-08T14:38:27.115Z,2.50
2022-12-08T14:41:04.780Z,2.50
2022-12-08T14:43:33.726Z,2.50
2022-12-08T14:46:19.627Z,2.50
2022-12-08T14:48:48.006Z,2.50
2022-12-08T14:51:24.620Z,2.40
2022-12-08T14:53:58.446Z,2.40
2022-12-08T14:56:33.637Z,2.40
2022-12-08T14:59:12.979Z,2.30
2022-12-08T15:01:44.406Z,2.30
2022-12-08T15:04:21.141Z,2.30
2022-12-08T15:06:54.685Z,2.20
2022-12-08T15:09:36.240Z,2.20
2022-12-08T15:12:07.524Z,2.10
2022-12-08T15:14:40.425Z,2.10
2022-12-08T15:17:36.319Z,2.00
2022-12-08T15:20:07.396Z,2.00
2022-12-08T15:22:35.984Z,2.00
2022-12-08T15:25:04.831Z,2.00
2022-12-08T15:27:40.894Z,2.00
2022-12-08T15:30:17.739Z,1.90
2022-12-08T15:32:47.394Z,1.90
2022-12-08T15:35:16.493Z,1.80
2022-12-08T15:37:44.869Z,1.80
2022-12-08T15:40:19.961Z,1.70
2022-12-08T15:42:48.827Z,1.70
2022-12-08T15:45:18.866Z,1.70
2022-12-08T15:47:48.504Z,1.80
2022-12-08T15:50:19.397Z,1.80
2022-12-08T15:52:48.255Z,1.80
2022-12-08T15:55:19.207Z,1.80
2022-12-08T16:00:56.643Z,1.90
2022-12-08T16:09:24.234Z,2.00
2022-12-08T16:12:10.722Z,2.00
2022-12-08T16:17:30.565Z,2.00
2022-12-08T16:20:01.424Z,2.20
2022-12-08T16:25:23.179Z,2.10
2022-12-08T16:28:36.821Z,2.10
2022-12-08T16:30:43.092Z,2.10
2022-12-08T16:33:13.004Z,2.20
2022-12-08T16:35:44.655Z,2.20
2022-12-08T16:38:16.670Z,2.20
2022-12-08T16:41:05.834Z,2.20
2022-12-08T16:43:35.566Z,2.10
2022-12-08T16:46:04.848Z,2.10
2022-12-08T16:48:33.166Z,2.10
2022-12-08T16:51:04.461Z,2.10
2022-12-08T16:53:32.763Z,2.10
2022-12-08T16:56:02.079Z,2.10
2022-12-08T16:58:32.442Z,2.10
2022-12-08T17:01:00.822Z,2.10
2022-12-08T17:03:30.203Z,2.00
2022-12-08T17:05:58.552Z,2.20
2022-12-08T17:08:28.724Z,2.10
2022-12-08T17:11:08.171Z,2.10
2022-12-08T17:13:38.292Z,2.00
2022-12-08T17:16:11.888Z,1.90
2022-12-08T17:18:40.301Z,1.90
2022-12-08T17:21:12.076Z,1.90
2022-12-08T17:23:43.208Z,2.00
2022-12-08T17:26:12.033Z,2.00
2022-12-08T17:31:32.037Z,1.90
2022-12-08T17:34:01.742Z,1.90
2022-12-08T17:36:30.375Z,1.80
2022-12-08T17:39:02.238Z,1.80
2022-12-08T17:41:31.708Z,1.90
2022-12-08T17:44:00.377Z,1.80
2022-12-08T17:46:28.855Z,1.80
2022-12-08T17:48:57.311Z,1.90
2022-12-08T17:51:25.641Z,1.90
2022-12-08T17:53:54.572Z,1.80
2022-12-08T17:56:24.255Z,1.70
2022-12-08T17:58:54.825Z,1.60
2022-12-08T18:01:24.098Z,1.50
2022-12-08T18:03:53.225Z,1.50
2022-12-08T18:06:23.699Z,1.60
2022-12-08T18:08:54.004Z,1.60
2022-12-08T18:11:23.900Z,1.60
2022-12-08T18:13:53.488Z,1.70
2022-12-08T18:16:26.044Z,1.70
2022-12-08T18:18:55.038Z,1.70
2022-12-08T18:21:23.998Z,1.70
2022-12-08T18:23:52.774Z,1.80
2022-12-08T18:26:23.931Z,1.90
2022-12-08T18:28:52.575Z,2.00
2022-12-08T18:31:23.580Z,2.10
2022-12-08T18:33:54.799Z,2.00
2022-12-08T18:36:26.348Z,1.90
2022-12-08T18:38:55.051Z,2.00
2022-12-08T18:41:26.823Z,1.90
2022-12-08T18:43:56.996Z,1.90
2022-12-08T18:46:26.518Z,1.90
2022-12-08T18:48:54.918Z,1.90
2022-12-08T18:51:25.223Z,2.00
2022-12-08T18:53:54.676Z,2.10
2022-12-08T18:56:27.664Z,2.00
2022-12-08T18:59:02.839Z,2.10
2022-12-08T19:01:33.050Z,2.00
2022-12-08T19:06:52.832Z,1.90
2022-12-08T19:09:22.351Z,1.90
2022-12-08T19:11:52.427Z,1.90
2022-12-08T19:14:27.259Z,2.00
2022-12-08T19:16:58.465Z,2.10
2022-12-08T19:19:27.449Z,1.90
2022-12-08T19:21:56.291Z,1.80
2022-12-08T19:24:25.140Z,1.70
2022-12-08T19:26:55.292Z,1.70
2022-12-08T19:29:23.826Z,1.60
2022-12-08T19:31:52.223Z,1.60
2022-12-08T19:34:20.943Z,1.50
2022-12-08T19:36:49.555Z,1.50
2022-12-08T19:39:38.517Z,1.50
2022-12-08T19:42:33.694Z,1.40
2022-12-08T19:45:08.044Z,1.40
2022-12-08T19:47:36.435Z,1.40
2022-12-08T19:50:26.025Z,1.30
2022-12-08T19:52:55.817Z,1.30
2022-12-08T19:55:25.768Z,1.30
2022-12-08T19:57:56.655Z,1.20
2022-12-08T20:00:25.327Z,1.20
2022-12-08T20:02:53.741Z,1.10
2022-12-08T20:05:22.602Z,1.20
2022-12-08T20:07:55.533Z,1.10
2022-12-08T20:10:28.027Z,1.10
2022-12-08T20:13:12.222Z,1.00
2022-12-08T20:15:40.851Z,1.00
2022-12-08T20:18:09.591Z,0.90
2022-12-08T20:20:37.984Z,0.80
2022-12-08T20:23:06.345Z,0.90
2022-12-08T20:25:35.395Z,0.90
2022-12-08T20:28:05.854Z,0.80
2022-12-08T20:30:34.241Z,0.80
2022-12-08T20:33:02.716Z,0.80
2022-12-08T20:35:33.147Z,0.90
2022-12-08T20:38:01.454Z,0.80
2022-12-08T20:40:29.771Z,0.90
2022-12-08T20:42:58.157Z,0.80
2022-12-08T20:45:27.916Z,0.80
2022-12-08T20:47:56.441Z,0.80
2022-12-08T20:50:25.298Z,0.70
2022-12-08T20:52:53.744Z,0.60
2022-12-08T20:55:22.152Z,0.60
2022-12-08T20:57:50.439Z,0.50
2022-12-08T21:00:21.153Z,0.50
2022-12-08T21:02:56.240Z,0.50
2022-12-08T21:05:26.386Z,0.50
2022-12-08T21:07:55.021Z,0.50
2022-12-08T21:10:23.469Z,0.50
2022-12-08T21:12:51.950Z,0.50
2022-12-08T21:15:20.536Z,0.50
2022-12-08T21:17:50.320Z,0.40
2022-12-08T21:20:18.996Z,0.40
2022-12-08T21:22:47.686Z,0.50
2022-12-08T21:25:16.308Z,0.40
2022-12-08T21:27:44.833Z,0.40
2022-12-08T21:30:15.039Z,0.40
2022-12-08T21:32:43.551Z,0.40
2022-12-08T21:35:13.561Z,0.30
2022-12-08T21:37:42.267Z,0.20
2022-12-08T21:40:12.458Z,0.30
2022-12-08T21:42:47.308Z,0.30
2022-12-08T21:45:19.124Z,0.30
2022-12-08T21:47:49.645Z,0.30
2022-12-08T21:50:19.939Z,0.20
2022-12-08T21:52:50.763Z,0.30
2022-12-08T21:55:20.267Z,0.20
2022-12-08T21:57:48.876Z,0.20
2022-12-08T22:00:19.623Z,0.20
2022-12-08T22:02:48.201Z,0.30
2022-12-08T22:05:16.806Z,0.30
2022-12-08T22:07:46.668Z,0.30
2022-12-08T22:10:15.419Z,0.40
2022-12-08T22:12:43.967Z,0.50
2022-12-08T22:15:14.105Z,0.40
2022-12-08T22:17:44.709Z,0.50
2022-12-08T22:20:16.021Z,0.50
2022-12-08T22:22:46.892Z,0.50
2022-12-08T22:25:16.149Z,0.50
2022-12-08T22:27:44.791Z,0.50
2022-12-08T22:30:13.938Z,0.50
2022-12-08T22:32:43.756Z,0.50
2022-12-08T22:35:12.281Z,0.50
2022-12-08T22:37:40.841Z,0.50
2022-12-08T22:40:12.843Z,0.50
2022-12-08T22:42:41.656Z,0.50
2022-12-08T22:45:12.656Z,0.60
2022-12-08T22:47:41.214Z,0.60
2022-12-08T22:50:10.713Z,0.50
2022-12-08T22:52:39.684Z,0.50
2022-12-08T22:55:10.819Z,0.50
2022-12-08T22:57:39.126Z,0.50
2022-12-08T23:00:11.440Z,0.50
2022-12-08T23:02:40.283Z,0.60
2022-12-08T23:05:09.823Z,0.60
2022-12-08T23:07:38.901Z,0.50
2022-12-08T23:10:11.693Z,0.50
2022-12-08T23:12:40.315Z,0.50
2022-12-08T23:15:10.066Z,0.50
2022-12-08T23:17:38.578Z,0.40
2022-12-08T23:20:09.645Z,0.50
2022-12-08T23:22:38.511Z,0.50
2022-12-08T23:25:08.555Z,0.40
2022-12-08T23:27:38.702Z,0.40
2022-12-08T23:30:10.538Z,0.50
2022-12-08T23:32:39.324Z,0.50
2022-12-08T23:35:09.519Z,0.50
2022-12-08T23:37:37.948Z,0.50
2022-12-08T23:40:08.787Z,0.50
2022-12-08T23:42:38.593Z,0.50
2022-12-08T23:45:09.582Z,0.50
2022-12-08T23:47:37.948Z,0.60
2022-12-08T23:50:08.726Z,0.60
2022-12-08T23:52:39.526Z,0.60
2022-12-08T23:55:11.134Z,0.50
2022-12-08T23:57:41.035Z,0.50
